Time;durP1;ratioP1;P1;durP2;ratioP2;P2;SDS_P1;SDS_P2;PMS_P1;PMS_P2;Temp;Humidity;BMP_temperature;BMP_pressure;BME280_temperature;BME280_humidity;BME280_pressure;Samples;Min_cycle;Max_cycle;Signal;HPM_P1;HPM_P2
2023/03/19 00:01:45;;;;;;;3.35;2.05;;;;;;;;;;5032529;28;20052;-63
2023/03/19 00:04:12;;;;;;;1.73;0.75;;;;;;;;;;5032674;28;20057;-63
2023/03/19 00:06:38;;;;;;;1.20;1.00;;;;;;;;;;5032190;28;20046;-65
2023/03/19 00:09:05;;;;;;;2.10;1.70;;;;;;;;;;5032296;28;20046;-63
2023/03/19 00:11:32;;;;;;;1.25;1.00;;;;;;;;;;5049961;28;20041;-64
2023/03/19 00:13:58;;;;;;;2.57;0.63;;;;;;;;;;5052340;28;20401;-64
2023/03/19 00:16:24;;;;;;;2.33;0.57;;;;;;;;;;5052256;28;20178;-64
2023/03/19 00:18:51;;;;;;;2.00;0.90;;;;;;;;;;5051957;28;20049;-65
2023/03/19 00:21:18;;;;;;;1.38;0.50;;;;;;;;;;5051864;28;20140;-64
2023/03/19 00:23:44;;;;;;;5.25;1.80;;;;;;;;;;5051873;28;20497;-64
2023/03/19 00:26:11;;;;;;;4.57;1.60;;;;;;;;;;5046338;28;20049;-64
2023/03/19 00:28:37;;;;;;;1.92;0.82;;;;;;;;;;5051630;28;20489;-65
2023/03/19 00:31:08;;;;;;;3.13;0.95;;;;;;;;;;5051617;28;20049;-64
2023/03/19 00:33:34;;;;;;;3.10;0.52;;;;;;;;;;5051631;28;20079;-65
2023/03/19 00:36:00;;;;;;;3.00;0.52;;;;;;;;;;5049959;28;20049;-65
2023/03/19 00:38:27;;;;;;;5.25;0.90;;;;;;;;;;5051560;28;20106;-65
2023/03/19 00:40:53;;;;;;;1.92;0.75;;;;;;;;;;5051562;28;20481;-65
2023/03/19 00:43:19;;;;;;;2.92;0.80;;;;;;;;;;5036944;28;20061;-65
2023/03/19 00:45:46;;;;;;;2.78;0.68;;;;;;;;;;5051727;28;20057;-65
2023/03/19 00:48:12;;;;;;;3.13;0.90;;;;;;;;;;5051639;28;20053;-64
2023/03/19 00:50:39;;;;;;;3.13;1.20;;;;;;;;;;5043566;28;20045;-65
2023/03/19 00:53:05;;;;;;;4.55;0.90;;;;;;;;;;5027666;28;20055;-65
2023/03/19 00:55:32;;;;;;;4.15;0.90;;;;;;;;;;5041874;28;20053;-65
2023/03/19 00:57:58;;;;;;;3.40;0.73;;;;;;;;;;5050353;28;20060;-65
2023/03/19 01:00:25;;;;;;;2.40;0.77;;;;;;;;;;5049471;28;20416;-65
2023/03/19 01:02:51;;;;;;;3.15;0.47;;;;;;;;;;5051023;28;20053;-65
2023/03/19 01:05:18;;;;;;;9.75;6.10;;;;;;;;;;5051532;28;20053;-65
2023/03/19 01:07:45;;;;;;;17.85;9.32;;;;;;;;;;5051517;28;20059;-65
2023/03/19 01:10:12;;;;;;;8.75;3.33;;;;;;;;;;5051442;28;20052;-65
2023/03/19 01:12:38;;;;;;;9.57;4.05;;;;;;;;;;5051554;28;20140;-65
2023/03/19 01:15:05;;;;;;;6.22;2.53;;;;;;;;;;5050348;28;20051;-65
2023/03/19 01:17:32;;;;;;;3.60;1.13;;;;;;;;;;5051565;28;20107;-65
2023/03/19 01:19:58;;;;;;;4.38;1.40;;;;;;;;;;5050472;28;20053;-65
2023/03/19 01:22:25;;;;;;;5.00;1.88;;;;;;;;;;5051815;28;20063;-65
2023/03/19 01:24:51;;;;;;;5.72;2.42;;;;;;;;;;5051656;28;20132;-65
2023/03/19 01:27:19;;;;;;;4.57;1.80;;;;;;;;;;5051829;28;20057;-65
2023/03/19 01:29:45;;;;;;;3.75;1.33;;;;;;;;;;5051133;28;20057;-65
2023/03/19 01:32:11;;;;;;;3.72;1.35;;;;;;;;;;5051715;28;20045;-65
2023/03/19 01:34:38;;;;;;;3.80;1.35;;;;;;;;;;5051669;28;20140;-65
2023/03/19 01:37:04;;;;;;;4.53;1.45;;;;;;;;;;5051332;28;20048;-65
2023/03/19 01:39:30;;;;;;;3.53;1.20;;;;;;;;;;5051389;28;20048;-65
2023/03/19 01:41:59;;;;;;;5.65;1.45;;;;;;;;;;5051350;28;20056;-65
2023/03/19 01:44:27;;;;;;;3.55;0.93;;;;;;;;;;5051341;28;20049;-65
2023/03/19 01:46:55;;;;;;;3.97;1.27;;;;;;;;;;5051227;28;20728;-65
2023/03/19 01:49:22;;;;;;;2.47;1.55;;;;;;;;;;5051248;28;20493;-65
2023/03/19 01:51:50;;;;;;;3.40;1.30;;;;;;;;;;5051193;28;20083;-65
2023/03/19 01:54:18;;;;;;;3.42;1.40;;;;;;;;;;5051236;28;20037;-65
2023/03/19 01:56:46;;;;;;;5.40;1.48;;;;;;;;;;5051525;28;20087;-65
2023/03/19 01:59:20;;;;;;;4.53;1.30;;;;;;;;;;5051485;28;20040;-65
2023/03/19 02:01:50;;;;;;;4.40;1.30;;;;;;;;;;5051184;28;20135;-65
2023/03/19 02:04:17;;;;;;;4.50;1.52;;;;;;;;;;5051477;28;20052;-65
2023/03/19 02:06:44;;;;;;;5.23;1.77;;;;;;;;;;5051481;28;20381;-65
2023/03/19 02:09:11;;;;;;;4.55;1.20;;;;;;;;;;5051046;28;20274;-65
2023/03/19 02:11:37;;;;;;;3.30;1.10;;;;;;;;;;5051305;28;20040;-65
2023/03/19 02:14:04;;;;;;;4.53;1.60;;;;;;;;;;5051158;28;20041;-65
2023/03/19 02:16:30;;;;;;;3.13;1.60;;;;;;;;;;5052983;28;20041;-65
2023/03/19 02:18:57;;;;;;;4.47;1.95;;;;;;;;;;5054833;28;20049;-65
2023/03/19 02:21:24;;;;;;;5.75;1.70;;;;;;;;;;5055106;28;20067;-65
2023/03/19 02:23:54;;;;;;;3.90;1.70;;;;;;;;;;5054689;28;20136;-65
2023/03/19 02:26:22;;;;;;;10.65;1.98;;;;;;;;;;5054607;28;20055;-65
2023/03/19 02:28:50;;;;;;;3.28;2.28;;;;;;;;;;5054671;28;20436;-65
2023/03/19 02:31:17;;;;;;;5.07;1.73;;;;;;;;;;5054659;28;20045;-65
2023/03/19 02:33:44;;;;;;;4.22;1.73;;;;;;;;;;5054673;28;20048;-65
2023/03/19 02:36:16;;;;;;;6.67;1.73;;;;;;;;;;5054566;28;20485;-65
2023/03/19 02:38:44;;;;;;;3.63;1.33;;;;;;;;;;5054366;28;20049;-65
2023/03/19 02:41:10;;;;;;;4.43;1.55;;;;;;;;;;5054740;28;20135;-65
2023/03/19 02:43:38;;;;;;;2.75;1.30;;;;;;;;;;5054282;28;20489;-65
2023/03/19 02:46:06;;;;;;;3.38;1.40;;;;;;;;;;5054477;28;20053;-65
2023/03/19 02:48:33;;;;;;;3.72;1.50;;;;;;;;;;5054531;28;20131;-65
2023/03/19 02:51:00;;;;;;;3.58;1.38;;;;;;;;;;5054100;28;20554;-65
2023/03/19 02:53:26;;;;;;;3.35;1.30;;;;;;;;;;5054382;28;20049;-65
2023/03/19 02:55:53;;;;;;;6.00;1.90;;;;;;;;;;5054306;28;20056;-65
2023/03/19 02:58:19;;;;;;;6.45;1.77;;;;;;;;;;5054462;28;20049;-65
2023/03/19 03:00:46;;;;;;;4.30;2.10;;;;;;;;;;5053981;28;20048;-65
2023/03/19 03:03:12;;;;;;;7.05;2.28;;;;;;;;;;5054012;28;20067;-65
2023/03/19 03:05:39;;;;;;;7.57;2.10;;;;;;;;;;5053808;28;20053;-65
2023/03/19 03:08:05;;;;;;;10.77;2.88;;;;;;;;;;5054139;28;20057;-65
2023/03/19 03:10:32;;;;;;;8.48;2.53;;;;;;;;;;5053986;28;20064;-65
2023/03/19 03:13:00;;;;;;;7.78;2.10;;;;;;;;;;5053841;28;20523;-65
2023/03/19 03:15:27;;;;;;;6.10;1.85;;;;;;;;;;5053795;28;20535;-65
2023/03/19 03:17:55;;;;;;;9.73;2.45;;;;;;;;;;5053732;28;20424;-65
2023/03/19 03:20:21;;;;;;;5.60;2.22;;;;;;;;;;5053664;28;20051;-65
2023/03/19 03:22:47;;;;;;;6.10;1.92;;;;;;;;;;5053493;28;20049;-65
2023/03/19 03:25:14;;;;;;;8.02;2.03;;;;;;;;;;5053606;28;20051;-65
2023/03/19 03:27:41;;;;;;;9.13;2.40;;;;;;;;;;5053425;28;20061;-65
2023/03/19 03:30:09;;;;;;;13.35;2.90;;;;;;;;;;5053214;28;20072;-65
2023/03/19 03:32:36;;;;;;;7.65;2.53;;;;;;;;;;5053484;28;20588;-65
2023/03/19 03:35:04;;;;;;;10.68;2.70;;;;;;;;;;5052095;28;20179;-65
2023/03/19 03:37:30;;;;;;;7.32;2.20;;;;;;;;;;5053711;28;20067;-65
2023/03/19 03:39:56;;;;;;;10.98;2.60;;;;;;;;;;5053215;28;20052;-65
2023/03/19 03:42:23;;;;;;;7.28;2.30;;;;;;;;;;5053466;28;20456;-65
2023/03/19 03:44:49;;;;;;;8.65;2.30;;;;;;;;;;5053503;28;20408;-65
2023/03/19 03:47:16;;;;;;;7.68;2.53;;;;;;;;;;5053413;28;20401;-65
2023/03/19 03:49:43;;;;;;;7.63;2.37;;;;;;;;;;5053116;28;20053;-65
2023/03/19 03:52:09;;;;;;;5.70;2.00;;;;;;;;;;5052878;28;20052;-65
2023/03/19 03:54:36;;;;;;;6.45;2.35;;;;;;;;;;5046695;28;20409;-65
2023/03/19 03:57:02;;;;;;;6.63;1.80;;;;;;;;;;5052838;28;20524;-65
2023/03/19 03:59:29;;;;;;;9.00;2.15;;;;;;;;;;5052850;28;20049;-65
2023/03/19 04:01:55;;;;;;;6.35;2.00;;;;;;;;;;5052790;28;20052;-65
2023/03/19 04:04:21;;;;;;;7.97;2.75;;;;;;;;;;5052838;28;20471;-65
2023/03/19 04:06:48;;;;;;;7.63;2.10;;;;;;;;;;5052743;28;20563;-65
2023/03/19 04:09:16;;;;;;;8.55;2.72;;;;;;;;;;5052669;28;20053;-65
2023/03/19 04:11:42;;;;;;;6.15;2.40;;;;;;;;;;5052460;28;20452;-65
2023/03/19 04:14:08;;;;;;;5.25;2.28;;;;;;;;;;5052713;28;20413;-65
2023/03/19 04:16:35;;;;;;;6.28;2.20;;;;;;;;;;5052504;28;20127;-65
2023/03/19 04:19:01;;;;;;;7.25;1.92;;;;;;;;;;5052485;28;20045;-65
2023/03/19 04:21:28;;;;;;;6.00;2.25;;;;;;;;;;5052455;28;20061;-65
2023/03/19 04:23:55;;;;;;;7.07;2.17;;;;;;;;;;5052627;28;20044;-65
2023/03/19 04:26:21;;;;;;;9.00;2.50;;;;;;;;;;5052441;28;20390;-65
2023/03/19 04:28:48;;;;;;;12.32;2.45;;;;;;;;;;5052073;28;20071;-65
2023/03/19 04:31:14;;;;;;;9.45;2.70;;;;;;;;;;5052265;28;20500;-65
2023/03/19 04:33:41;;;;;;;10.48;2.95;;;;;;;;;;5052542;28;20045;-65
2023/03/19 04:36:07;;;;;;;9.43;3.20;;;;;;;;;;5052522;28;20098;-65
2023/03/19 04:38:33;;;;;;;10.73;3.25;;;;;;;;;;5051628;28;20064;-65
2023/03/19 04:41:00;;;;;;;6.22;2.30;;;;;;;;;;5052260;28;20398;-65
2023/03/19 04:43:27;;;;;;;6.85;2.42;;;;;;;;;;5052139;28;20071;-65
2023/03/19 04:45:53;;;;;;;7.35;2.40;;;;;;;;;;5051993;28;20512;-65
2023/03/19 04:48:20;;;;;;;6.53;2.40;;;;;;;;;;5047337;28;20052;-65
2023/03/19 04:50:47;;;;;;;9.43;2.95;;;;;;;;;;5051988;28;20045;-65
2023/03/19 04:53:13;;;;;;;13.05;3.80;;;;;;;;;;5052045;28;20071;-65
2023/03/19 04:55:39;;;;;;;10.27;3.67;;;;;;;;;;5038039;28;20405;-65
2023/03/19 04:58:08;;;;;;;8.48;3.28;;;;;;;;;;5051833;28;20516;-65
2023/03/19 05:00:34;;;;;;;9.45;3.20;;;;;;;;;;5052071;28;20086;-65
2023/03/19 05:03:01;;;;;;;8.77;3.10;;;;;;;;;;5052008;28;20040;-65
2023/03/19 05:05:27;;;;;;;10.38;3.30;;;;;;;;;;5052101;28;20073;-65
2023/03/19 05:07:53;;;;;;;12.05;4.20;;;;;;;;;;5051704;28;20044;-65
2023/03/19 05:10:20;;;;;;;12.77;4.07;;;;;;;;;;5051623;28;20049;-65
2023/03/19 05:12:46;;;;;;;10.48;3.25;;;;;;;;;;5051468;28;20492;-65
2023/03/19 05:15:13;;;;;;;9.45;2.40;;;;;;;;;;5051950;28;20057;-65
2023/03/19 05:17:40;;;;;;;11.30;3.83;;;;;;;;;;5051852;28;20127;-65
2023/03/19 05:20:07;;;;;;;10.38;4.18;;;;;;;;;;5051462;28;20128;-65
2023/03/19 05:22:33;;;;;;;13.88;4.18;;;;;;;;;;5051630;28;20056;-65
2023/03/19 05:24:59;;;;;;;11.23;3.90;;;;;;;;;;5051758;28;20049;-65
2023/03/19 05:27:26;;;;;;;13.48;4.30;;;;;;;;;;5051748;28;20148;-65
2023/03/19 05:29:52;;;;;;;12.90;4.50;;;;;;;;;;5051311;28;20775;-65
2023/03/19 05:32:20;;;;;;;13.13;4.50;;;;;;;;;;5051612;28;20041;-65
2023/03/19 05:34:46;;;;;;;9.10;4.20;;;;;;;;;;5051464;28;20071;-65
2023/03/19 05:37:13;;;;;;;6.68;2.38;;;;;;;;;;5051409;28;20041;-65
2023/03/19 05:39:39;;;;;;;10.45;2.60;;;;;;;;;;5051682;28;20049;-65
2023/03/19 05:42:06;;;;;;;10.50;4.55;;;;;;;;;;5051535;28;20075;-65
2023/03/19 05:44:32;;;;;;;14.98;6.35;;;;;;;;;;5051577;28;20080;-65
2023/03/19 05:46:59;;;;;;;8.45;3.30;;;;;;;;;;5051396;28;20048;-65
2023/03/19 05:49:25;;;;;;;14.52;5.45;;;;;;;;;;5051619;28;20049;-65
2023/03/19 05:51:52;;;;;;;8.57;2.97;;;;;;;;;;5054082;28;20051;-65
2023/03/19 05:54:18;;;;;;;7.10;3.10;;;;;;;;;;5055263;28;20041;-65
2023/03/19 05:56:44;;;;;;;10.68;3.30;;;;;;;;;;5055531;28;20102;-65
2023/03/19 05:59:11;;;;;;;6.32;2.00;;;;;;;;;;5055145;28;20500;-65
2023/03/19 06:01:37;;;;;;;10.18;3.33;;;;;;;;;;5055432;28;20063;-65
2023/03/19 06:04:04;;;;;;;12.15;4.35;;;;;;;;;;5054972;28;20057;-65
2023/03/19 06:06:31;;;;;;;11.50;4.18;;;;;;;;;;5055350;28;20053;-65
2023/03/19 06:08:58;;;;;;;27.35;12.57;;;;;;;;;;5054902;28;20057;-65
2023/03/19 06:11:24;;;;;;;19.70;10.85;;;;;;;;;;5053826;28;20044;-65
2023/03/19 06:13:51;;;;;;;15.00;7.28;;;;;;;;;;5054933;28;20556;-65
2023/03/19 06:16:17;;;;;;;13.85;5.30;;;;;;;;;;5055139;28;20045;-65
2023/03/19 06:18:45;;;;;;;6.75;3.58;;;;;;;;;;5054947;28;20085;-65
2023/03/19 06:21:11;;;;;;;7.88;3.30;;;;;;;;;;5055084;28;20049;-65
2023/03/19 06:23:38;;;;;;;7.97;2.67;;;;;;;;;;5054736;28;20504;-65
2023/03/19 06:26:04;;;;;;;6.50;2.13;;;;;;;;;;5054939;28;20423;-65
2023/03/19 06:28:31;;;;;;;8.25;2.40;;;;;;;;;;5054430;28;20080;-65
2023/03/19 06:30:58;;;;;;;10.32;3.20;;;;;;;;;;5054822;28;20088;-65
2023/03/19 06:33:26;;;;;;;8.65;2.90;;;;;;;;;;5054788;28;20051;-65
2023/03/19 06:35:53;;;;;;;8.68;3.90;;;;;;;;;;5054487;28;20047;-65
2023/03/19 06:38:20;;;;;;;9.07;3.22;;;;;;;;;;5054432;28;20485;-65
2023/03/19 06:40:47;;;;;;;12.50;3.50;;;;;;;;;;5053438;28;20053;-65
2023/03/19 06:43:13;;;;;;;12.07;4.00;;;;;;;;;;5054725;28;20441;-65
2023/03/19 06:45:40;;;;;;;13.75;4.53;;;;;;;;;;5054567;28;20440;-65
2023/03/19 06:48:06;;;;;;;9.30;3.08;;;;;;;;;;5054601;28;20045;-65
2023/03/19 06:50:32;;;;;;;9.35;3.75;;;;;;;;;;5054237;28;20080;-65
2023/03/19 06:53:01;;;;;;;9.30;3.58;;;;;;;;;;5054152;28;20049;-65
2023/03/19 06:55:29;;;;;;;8.95;4.13;;;;;;;;;;5054322;28;20045;-65
2023/03/19 06:57:55;;;;;;;;;;;;;;;;;;5054567;28;20128;-65
2023/03/19 07:00:22;;;;;;;9.05;3.00;;;;;;;;;;5054037;28;20368;-65
2023/03/19 07:02:48;;;;;;;10.18;3.25;;;;;;;;;;5053475;28;20131;-65
2023/03/19 07:05:15;;;;;;;9.93;3.97;;;;;;;;;;5054278;28;20453;-65
2023/03/19 07:07:41;;;;;;;10.30;3.55;;;;;;;;;;5054184;28;20555;-64
2023/03/19 07:10:08;;;;;;;11.73;3.10;;;;;;;;;;5054016;28;20052;-65
2023/03/19 07:12:35;;;;;;;10.30;3.40;;;;;;;;;;5053966;28;20063;-65
2023/03/19 07:15:01;;;;;;;12.38;4.20;;;;;;;;;;5053834;28;20143;-65
2023/03/19 07:17:27;;;;;;;12.77;4.65;;;;;;;;;;5054120;28;20045;-65
2023/03/19 07:19:54;;;;;;;11.68;4.35;;;;;;;;;;5053611;28;20048;-65
2023/03/19 07:22:20;;;;;;;11.13;4.20;;;;;;;;;;5053503;28;20467;-65
2023/03/19 07:24:47;;;;;;;11.95;3.97;;;;;;;;;;5053741;28;20108;-65
2023/03/19 07:27:13;;;;;;;10.73;4.05;;;;;;;;;;5053734;28;20075;-65
2023/03/19 07:29:40;;;;;;;9.55;3.47;;;;;;;;;;5053457;28;20061;-65
2023/03/19 07:32:08;;;;;;;11.80;3.20;;;;;;;;;;5053443;28;20120;-65
2023/03/19 07:34:34;;;;;;;;;;;;;;;;;;5039369;28;20046;-65
2023/03/19 07:37:01;;;;;;;10.68;2.97;;;;;;;;;;5033282;28;19925;-65
2023/03/19 07:39:27;;;;;;;9.13;3.28;;;;;;;;;;5041897;28;20175;-65
2023/03/19 07:41:53;;;;;;;8.25;2.95;;;;;;;;;;5040008;28;20080;-66
2023/03/19 07:44:20;;;;;;;9.45;3.83;;;;;;;;;;5034673;28;20049;-65
2023/03/19 07:46:46;;;;;;;8.07;2.38;;;;;;;;;;5038053;28;20499;-65
2023/03/19 07:49:13;;;;;;;10.45;2.45;;;;;;;;;;5050992;28;20057;-66
2023/03/19 07:51:39;;;;;;;7.80;2.35;;;;;;;;;;5040048;28;20507;-66
2023/03/19 07:54:06;;;;;;;7.90;2.67;;;;;;;;;;5052467;28;20584;-65
2023/03/19 07:56:32;;;;;;;8.02;2.60;;;;;;;;;;5039315;28;20053;-65
2023/03/19 07:58:59;;;;;;;9.10;2.15;;;;;;;;;;5032694;28;20052;-65
2023/03/19 08:01:25;;;;;;;11.03;2.30;;;;;;;;;;5030955;28;20049;-65
2023/03/19 08:03:52;;;;;;;8.85;2.17;;;;;;;;;;5052337;28;20170;-64
2023/03/19 08:06:19;;;;;;;8.95;2.45;;;;;;;;;;5036722;28;20045;-66
2023/03/19 08:08:45;;;;;;;9.45;2.60;;;;;;;;;;5032169;28;20060;-65
2023/03/19 08:11:12;;;;;;;7.40;2.42;;;;;;;;;;5032197;28;20094;-66
2023/03/19 08:13:38;;;;;;;6.78;2.40;;;;;;;;;;5031594;28;20050;-65
2023/03/19 08:16:04;;;;;;;9.55;2.15;;;;;;;;;;5039438;28;20041;-66
2023/03/19 08:18:31;;;;;;;10.18;2.08;;;;;;;;;;5052328;28;20449;-65
2023/03/19 08:20:57;;;;;;;8.60;1.75;;;;;;;;;;5047687;28;20117;-67
2023/03/19 08:23:24;;;;;;;8.63;2.10;;;;;;;;;;5031599;28;20091;-65
2023/03/19 08:25:52;;;;;;;8.23;2.00;;;;;;;;;;5032553;28;20085;-65
2023/03/19 08:28:19;;;;;;;9.43;2.00;;;;;;;;;;5031898;28;20056;-65
2023/03/19 08:30:45;;;;;;;5.47;2.00;;;;;;;;;;5031649;28;20071;-66
2023/03/19 08:33:12;;;;;;;7.65;1.80;;;;;;;;;;5032036;28;20060;-65
2023/03/19 08:35:38;;;;;;;10.30;2.05;;;;;;;;;;5031831;28;20056;-65
2023/03/19 08:38:05;;;;;;;10.20;3.05;;;;;;;;;;5031853;28;20103;-66
2023/03/19 08:40:32;;;;;;;6.83;2.10;;;;;;;;;;5031743;28;20512;-66
2023/03/19 08:42:59;;;;;;;7.03;1.85;;;;;;;;;;5037741;28;20365;-65
2023/03/19 08:45:25;;;;;;;5.50;1.67;;;;;;;;;;5051565;28;20136;-65
2023/03/19 08:47:51;;;;;;;7.45;2.05;;;;;;;;;;5048712;28;20423;-66
2023/03/19 08:50:18;;;;;;;9.35;2.22;;;;;;;;;;5031753;28;20152;-64
2023/03/19 08:52:45;;;;;;;7.35;1.38;;;;;;;;;;5033285;28;20490;-66
2023/03/19 08:55:12;;;;;;;5.30;1.38;;;;;;;;;;5051716;28;20124;-66
2023/03/19 08:57:38;;;;;;;6.63;1.92;;;;;;;;;;5051569;28;20163;-65
2023/03/19 09:00:05;;;;;;;6.05;1.63;;;;;;;;;;5049276;28;20080;-65
2023/03/19 09:02:31;;;;;;;3.57;1.30;;;;;;;;;;5051502;28;20074;-66
2023/03/19 09:04:58;;;;;;;6.13;1.20;;;;;;;;;;5051519;28;20322;-66
2023/03/19 09:07:24;;;;;;;3.97;1.30;;;;;;;;;;5051535;28;20053;-65
2023/03/19 09:09:51;;;;;;;3.77;1.30;;;;;;;;;;5051312;28;20092;-66
2023/03/19 09:12:17;;;;;;;4.97;1.00;;;;;;;;;;5051626;28;20045;-66
2023/03/19 09:14:44;;;;;;;5.40;1.70;;;;;;;;;;5049697;28;20041;-66
2023/03/19 09:17:12;;;;;;;5.57;1.25;;;;;;;;;;5030130;28;20045;-66
2023/03/19 09:19:38;;;;;;;5.93;1.30;;;;;;;;;;5031212;28;20055;-66
2023/03/19 09:22:05;;;;;;;4.87;1.20;;;;;;;;;;5031094;28;20544;-66
2023/03/19 09:24:31;;;;;;;4.32;1.38;;;;;;;;;;5029409;28;20049;-66
2023/03/19 09:26:58;;;;;;;5.05;1.25;;;;;;;;;;5031010;28;20135;-65
2023/03/19 09:29:24;;;;;;;6.03;1.73;;;;;;;;;;5032396;28;20062;-66
2023/03/19 09:31:51;;;;;;;6.80;1.65;;;;;;;;;;5051141;28;20473;-66
2023/03/19 09:34:17;;;;;;;6.50;1.20;;;;;;;;;;5042416;28;20412;-65
2023/03/19 09:36:44;;;;;;;4.50;1.20;;;;;;;;;;5030968;28;20046;-66
2023/03/19 09:39:10;;;;;;;4.47;1.48;;;;;;;;;;5033323;28;20056;-66
2023/03/19 09:41:47;;;;;;;6.33;1.40;;;;;;;;;;5050898;28;20087;-66
2023/03/19 09:44:14;;;;;;;7.72;1.98;;;;;;;;;;5051075;28;20071;-66
2023/03/19 09:46:53;;;;;;;5.93;1.17;;;;;;;;;;5051143;28;20416;-66
2023/03/19 09:49:19;;;;;;;5.75;1.30;;;;;;;;;;5050700;28;20776;-66
2023/03/19 09:51:49;;;;;;;3.73;1.03;;;;;;;;;;5037491;28;20064;-66
2023/03/19 09:54:26;;;;;;;4.57;1.25;;;;;;;;;;5036000;28;20282;-65
2023/03/19 09:56:53;;;;;;;6.95;1.73;;;;;;;;;;5050592;28;20049;-67
2023/03/19 09:59:23;;;;;;;5.45;1.50;;;;;;;;;;5048948;28;20053;-66
2023/03/19 10:01:58;;;;;;;5.00;1.55;;;;;;;;;;5050635;28;20481;-66
2023/03/19 10:04:42;;;;;;;4.50;1.45;;;;;;;;;;5050617;28;20076;-65
2023/03/19 10:07:23;;;;;;;3.53;0.90;;;;;;;;;;5050597;28;20500;-66
2023/03/19 10:10:02;;;;;;;4.57;1.20;;;;;;;;;;5050466;28;20056;-65
2023/03/19 10:12:42;;;;;;;4.40;1.58;;;;;;;;;;5050833;28;20053;-66
2023/03/19 10:15:17;;;;;;;5.70;1.65;;;;;;;;;;5040073;28;20492;-66
2023/03/19 10:17:46;;;;;;;3.38;1.25;;;;;;;;;;5050708;28;20381;-65
2023/03/19 10:20:21;;;;;;;3.95;1.20;;;;;;;;;;5050279;28;20120;-66
2023/03/19 10:22:50;;;;;;;3.63;1.13;;;;;;;;;;5034489;28;20064;-66
2023/03/19 10:25:21;;;;;;;5.60;1.63;;;;;;;;;;5036187;28;20049;-65
2023/03/19 10:27:51;;;;;;;5.95;1.45;;;;;;;;;;5033155;28;20169;-66
2023/03/19 10:30:18;;;;;;;4.55;2.28;;;;;;;;;;5047882;28;20417;-66
2023/03/19 10:32:52;;;;;;;4.15;1.67;;;;;;;;;;5050290;28;20057;-66
2023/03/19 10:35:21;;;;;;;5.40;1.42;;;;;;;;;;5050372;28;20191;-67
2023/03/19 10:37:49;;;;;;;6.45;1.48;;;;;;;;;;5037939;28;20115;-64
2023/03/19 10:40:43;;;;;;;5.38;1.60;;;;;;;;;;5046894;28;20049;-64
2023/03/19 10:43:16;;;;;;;3.17;1.40;;;;;;;;;;5054089;28;20049;-64
2023/03/19 10:45:42;;;;;;;4.45;1.20;;;;;;;;;;5053678;28;20505;-64
2023/03/19 10:48:12;;;;;;;4.82;1.48;;;;;;;;;;5053985;28;20049;-64
2023/03/19 10:50:56;;;;;;;4.07;1.35;;;;;;;;;;5053251;28;20421;-65
2023/03/19 10:53:38;;;;;;;4.88;1.25;;;;;;;;;;5033645;28;20045;-65
2023/03/19 10:56:06;;;;;;;4.03;0.90;;;;;;;;;;5038288;28;20140;-64
2023/03/19 10:58:34;;;;;;;7.35;3.00;;;;;;;;;;5053764;28;20056;-64
2023/03/19 11:01:12;;;;;;;5.88;2.70;;;;;;;;;;5051781;28;20476;-64
2023/03/19 11:03:48;;;;;;;4.78;2.30;;;;;;;;;;5042442;28;20498;-64
2023/03/19 11:06:31;;;;;;;5.15;2.63;;;;;;;;;;5050483;28;20045;-64
2023/03/19 11:09:10;;;;;;;4.63;2.53;;;;;;;;;;5047542;28;20480;-64
2023/03/19 11:11:50;;;;;;;7.38;1.50;;;;;;;;;;5052747;28;20053;-64
2023/03/19 11:14:19;;;;;;;4.13;1.13;;;;;;;;;;5040771;28;20087;-64
2023/03/19 11:16:56;;;;;;;5.55;1.73;;;;;;;;;;5053365;28;20048;-64
2023/03/19 11:19:28;;;;;;;5.68;1.75;;;;;;;;;;5032839;28;20045;-64
2023/03/19 11:21:59;;;;;;;4.35;0.98;;;;;;;;;;5043793;28;20654;-65
2023/03/19 11:24:25;;;;;;;4.53;1.33;;;;;;;;;;5031984;28;20054;-64
2023/03/19 11:26:55;;;;;;;3.47;1.20;;;;;;;;;;5033298;28;20050;-63
2023/03/19 11:29:22;;;;;;;4.25;1.52;;;;;;;;;;5023601;28;20049;-63
2023/03/19 11:31:48;;;;;;;;;;;;;;;;;;5053270;28;20063;-64
2023/03/19 11:34:15;;;;;;;2.70;0.63;;;;;;;;;;5050997;28;19928;-64
2023/03/19 11:36:41;;;;;;;4.82;1.55;;;;;;;;;;5053469;28;20053;-64
2023/03/19 11:39:24;;;;;;;4.15;0.93;;;;;;;;;;5031193;28;20052;-64
2023/03/19 11:41:56;;;;;;;3.30;1.23;;;;;;;;;;5033277;28;20124;-64
2023/03/19 11:44:42;;;;;;;4.30;1.13;;;;;;;;;;5032005;28;20475;-63
2023/03/19 11:47:16;;;;;;;4.65;1.10;;;;;;;;;;5042626;28;20045;-63
2023/03/19 11:50:06;;;;;;;3.60;1.38;;;;;;;;;;5045292;28;20072;-63
2023/03/19 11:52:33;;;;;;;5.82;2.78;;;;;;;;;;5040891;28;20064;-63
2023/03/19 11:55:14;;;;;;;4.53;3.20;;;;;;;;;;5050455;28;20044;-63
2023/03/19 11:57:47;;;;;;;6.40;2.92;;;;;;;;;;5044210;28;20125;-63
2023/03/19 12:00:34;;;;;;;6.70;3.10;;;;;;;;;;5027126;28;20045;-63
2023/03/19 12:03:08;;;;;;;11.40;7.30;;;;;;;;;;5047420;28;20045;-63
2023/03/19 12:05:47;;;;;;;7.32;3.97;;;;;;;;;;5052127;28;20115;-63
2023/03/19 12:08:13;;;;;;;10.40;1.90;;;;;;;;;;5048452;28;20070;-63
2023/03/19 12:10:40;;;;;;;8.57;3.30;;;;;;;;;;5052220;28;20057;-63
2023/03/19 12:13:07;;;;;;;12.43;8.52;;;;;;;;;;5047225;28;20059;-62
2023/03/19 12:15:52;;;;;;;7.53;3.20;;;;;;;;;;5051728;28;20073;-62
2023/03/19 12:18:41;;;;;;;6.60;3.05;;;;;;;;;;5046577;28;20139;-63
2023/03/19 12:21:08;;;;;;;5.25;1.77;;;;;;;;;;5051765;28;20053;-63
2023/03/19 12:23:34;;;;;;;6.53;4.20;;;;;;;;;;5045800;28;20123;-63
2023/03/19 12:26:03;;;;;;;4.97;1.33;;;;;;;;;;5041301;28;20052;-62
2023/03/19 12:28:32;;;;;;;5.47;1.75;;;;;;;;;;5038300;28;20059;-63
2023/03/19 12:31:09;;;;;;;3.78;1.02;;;;;;;;;;5051883;28;20049;-63
2023/03/19 12:33:54;;;;;;;4.35;1.48;;;;;;;;;;5037578;28;20053;-63
2023/03/19 12:36:25;;;;;;;4.80;1.38;;;;;;;;;;5052070;28;20508;-63
2023/03/19 12:39:01;;;;;;;6.15;1.27;;;;;;;;;;5042738;28;20405;-63
2023/03/19 12:41:28;;;;;;;4.03;1.52;;;;;;;;;;5052294;28;20048;-63
2023/03/19 12:43:55;;;;;;;4.95;1.33;;;;;;;;;;5033992;28;20135;-63
2023/03/19 12:46:30;;;;;;;3.85;1.50;;;;;;;;;;5052440;28;20046;-63
2023/03/19 12:49:01;;;;;;;6.05;1.58;;;;;;;;;;5040445;28;20403;-63
2023/03/19 12:51:34;;;;;;;4.15;1.25;;;;;;;;;;5052116;28;20119;-63
2023/03/19 12:54:04;;;;;;;4.18;1.48;;;;;;;;;;5040047;28;20460;-63
2023/03/19 12:56:35;;;;;;;5.35;1.35;;;;;;;;;;5052333;28;20537;-63
2023/03/19 12:59:06;;;;;;;3.50;1.40;;;;;;;;;;5038802;28;20376;-63
2023/03/19 13:01:36;;;;;;;4.78;1.65;;;;;;;;;;5051388;28;20045;-63
2023/03/19 13:04:05;;;;;;;5.50;2.00;;;;;;;;;;5037726;28;20472;-62
2023/03/19 13:06:36;;;;;;;3.90;1.67;;;;;;;;;;5024045;28;20412;-63
2023/03/19 13:09:26;;;;;;;4.35;1.70;;;;;;;;;;5045334;28;20049;-62
2023/03/19 13:12:15;;;;;;;5.55;1.60;;;;;;;;;;5051027;28;20045;-63
2023/03/19 13:14:57;;;;;;;5.47;1.38;;;;;;;;;;5044074;28;20045;-62
2023/03/19 13:17:23;;;;;;;3.97;1.50;;;;;;;;;;5035913;28;20093;-62
2023/03/19 13:19:53;;;;;;;5.82;1.70;;;;;;;;;;5029146;28;20045;-63
2023/03/19 13:22:21;;;;;;;6.32;1.70;;;;;;;;;;5049998;28;20048;-62
2023/03/19 13:24:48;;;;;;;6.68;2.55;;;;;;;;;;5042222;28;20061;-62
2023/03/19 13:27:21;;;;;;;5.47;1.75;;;;;;;;;;5041839;28;20466;-62
2023/03/19 13:30:07;;;;;;;6.53;1.88;;;;;;;;;;5045559;28;20051;-63
2023/03/19 13:32:37;;;;;;;6.65;2.50;;;;;;;;;;5050431;28;20053;-63
2023/03/19 13:35:22;;;;;;;7.45;1.80;;;;;;;;;;5046017;28;20053;-62
2023/03/19 13:37:53;;;;;;;5.90;1.75;;;;;;;;;;5045674;28;20084;-62
2023/03/19 13:40:34;;;;;;;5.88;1.75;;;;;;;;;;5045840;28;20048;-62
2023/03/19 13:43:01;;;;;;;6.43;1.63;;;;;;;;;;5050803;28;20131;-62
2023/03/19 13:45:30;;;;;;;5.07;1.90;;;;;;;;;;5046925;28;20045;-63
2023/03/19 13:47:58;;;;;;;6.55;2.30;;;;;;;;;;5051103;28;20052;-62
2023/03/19 13:50:26;;;;;;;7.28;1.85;;;;;;;;;;5040142;28;20049;-63
2023/03/19 13:53:01;;;;;;;8.25;1.90;;;;;;;;;;5050658;28;20093;-63
2023/03/19 13:55:31;;;;;;;6.28;1.63;;;;;;;;;;5029170;28;20045;-63
2023/03/19 13:58:11;;;;;;;5.13;1.20;;;;;;;;;;5037572;28;20051;-62
2023/03/19 14:00:41;;;;;;;3.60;1.40;;;;;;;;;;5037355;28;20063;-62
2023/03/19 14:03:24;;;;;;;4.32;1.75;;;;;;;;;;5050276;28;20415;-63
2023/03/19 14:05:52;;;;;;;5.47;1.35;;;;;;;;;;5038572;28;20549;-64
2023/03/19 14:08:23;;;;;;;8.73;1.63;;;;;;;;;;5048242;28;20079;-63
2023/03/19 14:10:51;;;;;;;6.68;1.70;;;;;;;;;;5044704;28;20056;-64
2023/03/19 14:13:26;;;;;;;6.65;1.52;;;;;;;;;;5051645;28;20087;-63
2023/03/19 14:15:59;;;;;;;5.05;1.38;;;;;;;;;;5047731;28;20041;-63
2023/03/19 14:18:28;;;;;;;6.00;1.80;;;;;;;;;;5051155;28;20098;-63
2023/03/19 14:21:00;;;;;;;6.10;1.88;;;;;;;;;;5033346;28;20055;-63
2023/03/19 14:23:27;;;;;;;9.20;2.05;;;;;;;;;;5048722;28;20188;-63
2023/03/19 14:26:17;;;;;;;3.00;1.35;;;;;;;;;;5028110;28;20068;-63
2023/03/19 14:29:02;;;;;;;4.93;1.65;;;;;;;;;;5022199;28;20067;-63
2023/03/19 14:31:34;;;;;;;4.65;1.80;;;;;;;;;;5050114;28;20079;-63
2023/03/19 14:34:13;;;;;;;5.25;1.50;;;;;;;;;;5045269;28;20050;-63
2023/03/19 14:36:41;;;;;;;3.83;1.13;;;;;;;;;;5049367;28;20045;-63
2023/03/19 14:39:14;;;;;;;5.28;1.30;;;;;;;;;;5037961;28;20046;-63
2023/03/19 14:41:43;;;;;;;4.32;1.52;;;;;;;;;;5045764;28;20454;-63
2023/03/19 14:44:15;;;;;;;4.07;1.40;;;;;;;;;;5051346;28;20440;-63
2023/03/19 14:46:52;;;;;;;4.78;1.42;;;;;;;;;;5052967;28;20051;-64
2023/03/19 14:49:18;;;;;;;;;;;;;;;;;;5052142;28;20051;-63
2023/03/19 14:51:57;;;;;;;5.07;1.52;;;;;;;;;;5054491;28;19930;-63
2023/03/19 14:54:42;;;;;;;4.60;1.17;;;;;;;;;;5050392;28;20037;-63